Time;durP1;ratioP1;P1;durP2;ratioP2;P2;SDS_P1;SDS_P2;PMS_P1;PMS_P2;Temp;Humidity;BMP_temperature;BMP_pressure;BME280_temperature;BME280_humidity;BME280_pressure;Samples;Min_cycle;Max_cycle;Signal;HPM_P1;HPM_P2
2023/06/02 00:02:14;;;;;;;6.05;4.90;;;;;;;;;;5072594;28;20371;-81
2023/06/02 00:04:40;;;;;;;5.07;4.68;;;;;;;;;;5072598;28;20469;-81
2023/06/02 00:07:07;;;;;;;4.88;4.47;;;;;;;;;;5072603;28;20376;-81
2023/06/02 00:09:40;;;;;;;4.63;4.30;;;;;;;;;;5071838;28;20418;-81
2023/06/02 00:12:07;;;;;;;5.57;4.13;;;;;;;;;;5072403;28;20380;-81
2023/06/02 00:14:34;;;;;;;4.60;4.20;;;;;;;;;;5072297;28;20936;-81
2023/06/02 00:17:03;;;;;;;4.70;3.75;;;;;;;;;;5072420;28;20402;-81
2023/06/02 00:19:32;;;;;;;4.40;4.00;;;;;;;;;;5072020;28;20887;-81
2023/06/02 00:21:58;;;;;;;4.30;3.90;;;;;;;;;;5072207;28;20375;-81
2023/06/02 00:24:24;;;;;;;4.15;3.50;;;;;;;;;;5072146;28;20380;-81
2023/06/02 00:26:50;;;;;;;4.22;3.63;;;;;;;;;;5072220;28;20379;-81
2023/06/02 00:29:16;;;;;;;3.83;3.50;;;;;;;;;;5071944;28;20379;-81
2023/06/02 00:31:42;;;;;;;3.90;3.60;;;;;;;;;;5072049;28;20410;-80
2023/06/02 00:34:08;;;;;;;4.20;3.75;;;;;;;;;;5072039;28;20410;-80
2023/06/02 00:36:35;;;;;;;5.80;4.00;;;;;;;;;;5053912;28;20384;-80
2023/06/02 00:39:01;;;;;;;4.38;4.00;;;;;;;;;;5071477;28;20404;-80
2023/06/02 00:41:27;;;;;;;4.13;3.72;;;;;;;;;;5071733;28;20876;-80
2023/06/02 00:43:53;;;;;;;3.90;3.60;;;;;;;;;;5068808;28;20386;-80
2023/06/02 00:46:19;;;;;;;4.67;4.23;;;;;;;;;;5065701;28;20387;-80
2023/06/02 00:48:47;;;;;;;3.70;3.40;;;;;;;;;;5071681;28;20387;-80
2023/06/02 00:51:13;;;;;;;4.00;3.70;;;;;;;;;;5071714;28;20929;-80
2023/06/02 00:53:40;;;;;;;3.83;3.50;;;;;;;;;;5071138;28;20459;-80
2023/06/02 00:56:06;;;;;;;4.03;3.70;;;;;;;;;;5071622;28;20394;-80
2023/06/02 00:58:37;;;;;;;4.00;3.60;;;;;;;;;;5071275;28;20387;-80
2023/06/02 01:01:03;;;;;;;4.50;3.83;;;;;;;;;;5071459;28;20412;-80
2023/06/02 01:03:29;;;;;;;4.10;3.70;;;;;;;;;;5071508;28;20379;-80
2023/06/02 01:05:56;;;;;;;3.95;3.45;;;;;;;;;;5071334;28;20379;-80
2023/06/02 01:08:23;;;;;;;3.75;3.42;;;;;;;;;;5071489;28;20395;-80
2023/06/02 01:10:50;;;;;;;4.32;3.92;;;;;;;;;;5071090;28;20518;-80
2023/06/02 01:13:16;;;;;;;3.80;3.50;;;;;;;;;;5071430;28;20490;-80
2023/06/02 01:15:44;;;;;;;4.35;3.97;;;;;;;;;;5071222;28;20748;-80
2023/06/02 01:18:12;;;;;;;3.80;3.50;;;;;;;;;;5071302;28;20384;-80
2023/06/02 01:20:48;;;;;;;4.00;3.70;;;;;;;;;;5071066;28;20893;-80
2023/06/02 01:23:21;;;;;;;4.05;3.75;;;;;;;;;;5071253;28;20426;-80
2023/06/02 01:25:47;;;;;;;5.78;3.42;;;;;;;;;;5071234;28;20905;-80
2023/06/02 01:28:13;;;;;;;3.92;3.63;;;;;;;;;;5071103;28;20437;-80
2023/06/02 01:30:39;;;;;;;3.38;3.08;;;;;;;;;;5071109;28;20722;-80
2023/06/02 01:33:05;;;;;;;3.47;3.17;;;;;;;;;;5071142;28;20896;-80
2023/06/02 01:35:32;;;;;;;4.30;3.10;;;;;;;;;;5071183;28;20471;-80
2023/06/02 01:37:59;;;;;;;3.92;3.13;;;;;;;;;;5071091;28;20473;-80
2023/06/02 01:40:26;;;;;;;3.30;3.00;;;;;;;;;;5070572;28;20421;-80
2023/06/02 01:42:53;;;;;;;3.83;3.03;;;;;;;;;;5070885;28;20876;-80
2023/06/02 01:45:20;;;;;;;3.22;2.83;;;;;;;;;;5044687;28;20380;-80
2023/06/02 01:47:46;;;;;;;4.32;2.92;;;;;;;;;;5070767;28;20387;-80
2023/06/02 01:50:12;;;;;;;2.97;2.65;;;;;;;;;;5070761;28;20403;-80
2023/06/02 01:52:38;;;;;;;4.37;3.00;;;;;;;;;;5070764;28;20948;-80
2023/06/02 01:55:05;;;;;;;3.40;2.80;;;;;;;;;;5070829;28;20395;-80
2023/06/02 01:57:32;;;;;;;3.03;2.73;;;;;;;;;;5072659;28;20433;-80
2023/06/02 01:59:58;;;;;;;2.80;2.60;;;;;;;;;;5074886;28;20399;-80
2023/06/02 02:02:24;;;;;;;3.22;2.78;;;;;;;;;;5074881;28;20376;-79
2023/06/02 02:04:51;;;;;;;2.72;2.53;;;;;;;;;;5074926;28;20433;-80
2023/06/02 02:07:19;;;;;;;3.10;2.80;;;;;;;;;;5074786;28;20720;-80
2023/06/02 02:09:45;;;;;;;3.58;2.75;;;;;;;;;;5074643;28;20407;-80
2023/06/02 02:12:11;;;;;;;3.15;2.50;;;;;;;;;;5074840;28;20466;-80
2023/06/02 02:14:38;;;;;;;3.85;2.88;;;;;;;;;;5074687;28;20455;-80
2023/06/02 02:17:04;;;;;;;3.25;2.70;;;;;;;;;;5074455;28;20382;-80
2023/06/02 02:19:31;;;;;;;3.92;3.08;;;;;;;;;;5074399;28;20772;-80
2023/06/02 02:21:57;;;;;;;3.05;2.75;;;;;;;;;;5074645;28;20771;-80
2023/06/02 02:24:23;;;;;;;2.92;2.63;;;;;;;;;;5068236;28;20389;-80
2023/06/02 02:26:49;;;;;;;3.78;2.72;;;;;;;;;;5074307;28;20392;-80
2023/06/02 02:29:15;;;;;;;3.25;2.85;;;;;;;;;;5072308;28;20383;-80
2023/06/02 02:31:41;;;;;;;4.72;2.80;;;;;;;;;;5058401;28;20390;-80
2023/06/02 02:34:07;;;;;;;3.03;2.60;;;;;;;;;;5066281;28;20375;-80
2023/06/02 02:36:33;;;;;;;2.90;2.70;;;;;;;;;;5062037;28;20718;-81
2023/06/02 02:39:00;;;;;;;3.00;2.80;;;;;;;;;;5044577;28;20437;-81
2023/06/02 02:41:26;;;;;;;3.63;3.10;;;;;;;;;;5069496;28;20389;-81
2023/06/02 02:43:52;;;;;;;4.18;3.25;;;;;;;;;;5071089;28;20377;-81
2023/06/02 02:46:18;;;;;;;2.90;2.70;;;;;;;;;;5069447;28;20875;-81
2023/06/02 02:48:44;;;;;;;3.28;2.80;;;;;;;;;;5073822;28;20383;-81
2023/06/02 02:51:10;;;;;;;3.30;2.80;;;;;;;;;;5072622;28;20455;-80
2023/06/02 02:53:36;;;;;;;3.88;3.00;;;;;;;;;;5072858;28;20482;-82
2023/06/02 02:56:02;;;;;;;4.00;3.30;;;;;;;;;;5071928;28;20383;-79
2023/06/02 02:58:28;;;;;;;3.17;2.88;;;;;;;;;;5065222;28;20376;-80
2023/06/02 03:00:55;;;;;;;3.28;2.97;;;;;;;;;;5065273;28;20457;-80
2023/06/02 03:03:21;;;;;;;3.05;2.78;;;;;;;;;;5061853;28;20407;-81
2023/06/02 03:05:48;;;;;;;4.10;3.05;;;;;;;;;;5058994;28;20407;-80
2023/06/02 03:08:15;;;;;;;3.53;3.07;;;;;;;;;;5054764;28;20452;-80
2023/06/02 03:10:42;;;;;;;3.10;2.80;;;;;;;;;;5054361;28;20755;-80
2023/06/02 03:13:08;;;;;;;3.00;2.80;;;;;;;;;;5066913;28;20384;-80
2023/06/02 03:15:34;;;;;;;4.18;2.72;;;;;;;;;;5059588;28;20862;-79
2023/06/02 03:18:00;;;;;;;3.17;2.87;;;;;;;;;;5066838;28;20388;-80
2023/06/02 03:20:26;;;;;;;3.92;3.38;;;;;;;;;;5061507;28;20416;-81
2023/06/02 03:22:52;;;;;;;3.45;3.15;;;;;;;;;;5065196;28;20509;-81
2023/06/02 03:25:22;;;;;;;3.50;3.20;;;;;;;;;;5069706;28;20426;-81
2023/06/02 03:27:48;;;;;;;3.40;2.80;;;;;;;;;;5063910;28;20830;-80
2023/06/02 03:30:14;;;;;;;3.20;2.90;;;;;;;;;;5067018;28;20845;-80
2023/06/02 03:32:40;;;;;;;3.30;3.00;;;;;;;;;;5063895;28;20439;-80
2023/06/02 03:35:06;;;;;;;3.30;2.80;;;;;;;;;;5067358;28;20445;-80
2023/06/02 03:37:32;;;;;;;3.53;3.22;;;;;;;;;;5063000;28;20801;-81
2023/06/02 03:39:58;;;;;;;3.40;3.10;;;;;;;;;;5063030;28;20412;-81
2023/06/02 03:42:24;;;;;;;3.50;3.20;;;;;;;;;;5059937;28;20388;-81
2023/06/02 03:44:50;;;;;;;3.50;3.20;;;;;;;;;;5060274;28;20377;-81
2023/06/02 03:47:16;;;;;;;4.75;3.25;;;;;;;;;;5061333;28;20872;-81
2023/06/02 03:49:42;;;;;;;3.45;3.15;;;;;;;;;;5063898;28;20388;-81
2023/06/02 03:52:08;;;;;;;3.50;3.10;;;;;;;;;;5067118;28;20382;-81
2023/06/02 03:54:34;;;;;;;3.28;2.97;;;;;;;;;;5063848;28;20379;-81
2023/06/02 03:57:00;;;;;;;3.45;3.13;;;;;;;;;;5068046;28;20869;-81
2023/06/02 03:59:26;;;;;;;3.30;2.80;;;;;;;;;;5063206;28;20403;-81
2023/06/02 04:01:52;;;;;;;3.37;3.00;;;;;;;;;;5064418;28;20409;-81
2023/06/02 04:04:32;;;;;;;3.40;3.10;;;;;;;;;;5059009;28;20390;-82
2023/06/02 04:06:58;;;;;;;3.55;3.25;;;;;;;;;;5038911;28;20878;-80
2023/06/02 04:09:24;;;;;;;4.00;3.60;;;;;;;;;;5054041;28;20439;-81
2023/06/02 04:11:50;;;;;;;3.95;3.55;;;;;;;;;;5062891;28;20395;-80
2023/06/02 04:14:16;;;;;;;3.80;3.50;;;;;;;;;;5068791;28;20397;-81
2023/06/02 04:16:42;;;;;;;3.13;2.90;;;;;;;;;;5060539;28;20421;-81
2023/06/02 04:19:08;;;;;;;3.65;3.13;;;;;;;;;;5064776;28;20404;-81
2023/06/02 04:21:35;;;;;;;3.60;3.30;;;;;;;;;;5052318;28;20375;-81
2023/06/02 04:24:01;;;;;;;3.70;3.00;;;;;;;;;;5047668;28;20376;-81
2023/06/02 04:26:27;;;;;;;3.53;3.22;;;;;;;;;;5072065;28;20438;-81
2023/06/02 04:28:53;;;;;;;3.40;3.20;;;;;;;;;;5072049;28;20376;-81
2023/06/02 04:31:26;;;;;;;4.50;3.58;;;;;;;;;;5072271;28;20926;-81
2023/06/02 04:33:53;;;;;;;4.10;3.37;;;;;;;;;;5071614;28;20471;-79
2023/06/02 04:36:20;;;;;;;3.50;3.10;;;;;;;;;;5071341;28;20504;-80
2023/06/02 04:38:46;;;;;;;3.92;3.53;;;;;;;;;;5063399;28;20405;-80
2023/06/02 04:41:12;;;;;;;3.53;3.22;;;;;;;;;;5052702;28;20439;-81
2023/06/02 04:43:39;;;;;;;3.30;3.00;;;;;;;;;;5062726;28;20399;-81
2023/06/02 04:46:06;;;;;;;5.90;4.13;;;;;;;;;;5064670;28;20902;-81
2023/06/02 04:48:32;;;;;;;3.55;3.05;;;;;;;;;;5064765;28;20470;-81
2023/06/02 04:50:58;;;;;;;4.40;3.10;;;;;;;;;;5059027;28;20429;-81
2023/06/02 04:53:24;;;;;;;3.35;3.05;;;;;;;;;;5058244;28;20901;-82
2023/06/02 04:55:50;;;;;;;3.85;3.20;;;;;;;;;;5064557;28;20392;-82
2023/06/02 04:58:16;;;;;;;3.47;3.15;;;;;;;;;;5070950;28;20856;-81
2023/06/02 05:00:42;;;;;;;4.63;3.05;;;;;;;;;;5058695;28;20435;-80
2023/06/02 05:03:08;;;;;;;3.78;3.40;;;;;;;;;;5071280;28;20379;-81
2023/06/02 05:05:34;;;;;;;4.85;3.47;;;;;;;;;;5066023;28;20377;-81
2023/06/02 05:08:00;;;;;;;3.60;3.30;;;;;;;;;;5065166;28;20423;-81
2023/06/02 05:10:27;;;;;;;3.77;3.20;;;;;;;;;;5044556;28;20821;-80
2023/06/02 05:12:53;;;;;;;4.25;3.30;;;;;;;;;;5056630;28;20861;-81
2023/06/02 05:15:19;;;;;;;4.78;3.20;;;;;;;;;;5070559;28;20406;-82
2023/06/02 05:17:45;;;;;;;3.40;2.92;;;;;;;;;;5064875;28;20388;-83
2023/06/02 05:20:12;;;;;;;3.75;3.22;;;;;;;;;;5055616;28;20767;-82
2023/06/02 05:22:38;;;;;;;3.85;3.42;;;;;;;;;;5056336;28;20386;-81
2023/06/02 05:25:04;;;;;;;3.50;3.20;;;;;;;;;;5064041;28;20433;-82
2023/06/02 05:27:30;;;;;;;3.85;3.50;;;;;;;;;;5064414;28;20380;-81
2023/06/02 05:29:56;;;;;;;3.53;3.22;;;;;;;;;;5068083;28;20471;-81
2023/06/02 05:32:24;;;;;;;4.60;4.20;;;;;;;;;;5050621;28;20480;-81
2023/06/02 05:34:50;;;;;;;4.60;4.20;;;;;;;;;;5068068;28;20390;-82
2023/06/02 05:37:16;;;;;;;5.82;4.90;;;;;;;;;;5068817;28;20379;-82
2023/06/02 05:39:43;;;;;;;6.07;4.68;;;;;;;;;;5069169;28;20399;-82
2023/06/02 05:42:09;;;;;;;6.30;4.85;;;;;;;;;;5069190;28;20455;-81
2023/06/02 05:44:35;;;;;;;5.28;4.78;;;;;;;;;;5070366;28;20411;-82
2023/06/02 05:47:01;;;;;;;5.33;4.83;;;;;;;;;;5071027;28;20379;-82
2023/06/02 05:49:27;;;;;;;4.45;4.05;;;;;;;;;;5070586;28;20516;-82
2023/06/02 05:51:53;;;;;;;4.72;4.32;;;;;;;;;;5064419;28;20426;-82
2023/06/02 05:54:19;;;;;;;4.10;3.70;;;;;;;;;;5058137;28;20860;-82
2023/06/02 05:56:45;;;;;;;6.45;4.43;;;;;;;;;;5067405;28;20379;-81
2023/06/02 05:59:11;;;;;;;4.43;3.90;;;;;;;;;;5070692;28;20410;-82
2023/06/02 06:01:37;;;;;;;4.45;4.05;;;;;;;;;;5070494;28;20403;-82
2023/06/02 06:04:03;;;;;;;4.50;3.63;;;;;;;;;;5067131;28;20410;-82
2023/06/02 06:06:30;;;;;;;4.28;3.83;;;;;;;;;;5070884;28;20411;-81
2023/06/02 06:08:56;;;;;;;3.97;3.50;;;;;;;;;;5070336;28;20425;-82
2023/06/02 06:11:22;;;;;;;5.80;3.67;;;;;;;;;;5070874;28;20372;-82
2023/06/02 06:13:48;;;;;;;4.20;3.85;;;;;;;;;;5070331;28;20392;-82
2023/06/02 06:16:14;;;;;;;3.58;3.28;;;;;;;;;;5070735;28;20860;-82
2023/06/02 06:18:40;;;;;;;3.90;3.42;;;;;;;;;;5070337;28;20372;-83
2023/06/02 06:21:06;;;;;;;3.60;3.30;;;;;;;;;;5070471;28;20922;-82
2023/06/02 06:23:32;;;;;;;3.90;3.50;;;;;;;;;;5070771;28;20468;-83
2023/06/02 06:25:58;;;;;;;3.73;3.40;;;;;;;;;;5070553;28;20407;-82
2023/06/02 06:28:24;;;;;;;3.90;3.60;;;;;;;;;;5070648;28;20382;-83
2023/06/02 06:30:50;;;;;;;3.70;3.40;;;;;;;;;;5070602;28;20376;-82
2023/06/02 06:33:16;;;;;;;5.15;3.42;;;;;;;;;;5070499;28;20384;-83
2023/06/02 06:35:42;;;;;;;4.15;3.60;;;;;;;;;;5070406;28;20791;-82
2023/06/02 06:38:08;;;;;;;3.88;3.47;;;;;;;;;;5070501;28;20384;-81
2023/06/02 06:40:34;;;;;;;4.00;3.30;;;;;;;;;;5070301;28;20427;-82
2023/06/02 06:43:00;;;;;;;3.67;3.13;;;;;;;;;;5071167;28;20449;-82
2023/06/02 06:45:26;;;;;;;3.85;3.38;;;;;;;;;;5062270;28;20396;-81
2023/06/02 06:47:52;;;;;;;5.43;3.70;;;;;;;;;;5065563;28;20368;-81
2023/06/02 06:50:18;;;;;;;5.88;3.75;;;;;;;;;;5074257;28;20379;-82
2023/06/02 06:52:46;;;;;;;3.97;3.50;;;;;;;;;;5073959;28;20718;-82
2023/06/02 06:55:12;;;;;;;6.10;3.50;;;;;;;;;;5073841;28;20384;-80
2023/06/02 06:57:38;;;;;;;3.95;3.55;;;;;;;;;;5073363;28;20382;-82
2023/06/02 07:00:05;;;;;;;4.75;3.58;;;;;;;;;;5073676;28;20404;-82
2023/06/02 07:02:32;;;;;;;4.37;3.83;;;;;;;;;;5064958;28;20398;-84
2023/06/02 07:04:58;;;;;;;4.35;3.80;;;;;;;;;;5070461;28;20407;-84
2023/06/02 07:07:24;;;;;;;5.68;3.83;;;;;;;;;;5073364;28;20419;-84
2023/06/02 07:09:50;;;;;;;4.32;3.50;;;;;;;;;;5073390;28;20412;-84
2023/06/02 07:12:16;;;;;;;4.82;3.80;;;;;;;;;;5073262;28;20395;-84
2023/06/02 07:14:42;;;;;;;4.25;3.72;;;;;;;;;;5072493;28;20480;-84
2023/06/02 07:17:08;;;;;;;3.50;3.20;;;;;;;;;;5073518;28;20417;-84
2023/06/02 07:19:34;;;;;;;4.93;3.63;;;;;;;;;;5073282;28;20415;-84
2023/06/02 07:22:00;;;;;;;4.10;3.70;;;;;;;;;;5073499;28;20383;-84
2023/06/02 07:24:26;;;;;;;5.63;3.50;;;;;;;;;;5073368;28;20853;-85
2023/06/02 07:26:53;;;;;;;6.45;4.05;;;;;;;;;;5073416;28;20400;-84
2023/06/02 07:29:19;;;;;;;5.72;3.88;;;;;;;;;;5073232;28;20372;-84
2023/06/02 07:31:45;;;;;;;5.60;4.40;;;;;;;;;;5073318;28;20377;-84
2023/06/02 07:34:11;;;;;;;4.90;4.30;;;;;;;;;;5073199;28;20884;-84
2023/06/02 07:36:38;;;;;;;5.57;4.10;;;;;;;;;;5063530;28;20392;-84
2023/06/02 07:39:04;;;;;;;4.15;3.75;;;;;;;;;;5072508;28;20387;-85
2023/06/02 07:41:30;;;;;;;6.57;4.13;;;;;;;;;;5073042;28;20395;-84
2023/06/02 07:43:58;;;;;;;4.68;4.10;;;;;;;;;;5063006;28;20862;-85
2023/06/02 07:46:24;;;;;;;4.78;4.32;;;;;;;;;;5072966;28;20478;-84
2023/06/02 07:48:50;;;;;;;5.53;4.22;;;;;;;;;;5072890;28;20411;-84
2023/06/02 07:51:16;;;;;;;5.90;3.80;;;;;;;;;;5073004;28;20799;-84
2023/06/02 07:53:42;;;;;;;4.07;3.67;;;;;;;;;;5072701;28;20371;-84
2023/06/02 07:56:08;;;;;;;5.87;4.10;;;;;;;;;;5071864;28;20419;-84
2023/06/02 07:58:34;;;;;;;4.83;4.17;;;;;;;;;;5072304;28;20371;-84
2023/06/02 08:01:00;;;;;;;5.70;3.92;;;;;;;;;;5072303;28;20396;-85
2023/06/02 08:03:26;;;;;;;4.43;3.67;;;;;;;;;;5054757;28;20394;-85
2023/06/02 08:05:52;;;;;;;4.45;4.05;;;;;;;;;;5072279;28;20376;-85
2023/06/02 08:08:18;;;;;;;4.95;3.83;;;;;;;;;;5072531;28;20933;-84
2023/06/02 08:10:44;;;;;;;4.60;4.07;;;;;;;;;;5072524;28;20407;-84
2023/06/02 08:13:11;;;;;;;4.18;3.78;;;;;;;;;;5072527;28;20509;-84
2023/06/02 08:15:37;;;;;;;5.30;4.18;;;;;;;;;;5072441;28;20388;-84
2023/06/02 08:18:03;;;;;;;5.03;3.90;;;;;;;;;;5072307;28;20388;-84
2023/06/02 08:20:29;;;;;;;5.07;3.90;;;;;;;;;;5072548;28;20494;-85
2023/06/02 08:22:56;;;;;;;5.93;4.20;;;;;;;;;;5054289;28;20757;-85
2023/06/02 08:25:22;;;;;;;6.22;3.80;;;;;;;;;;5072322;28;20380;-84
2023/06/02 08:28:09;;;;;;;4.22;3.80;;;;;;;;;;5072075;28;20733;-84
2023/06/02 08:30:36;;;;;;;4.63;3.65;;;;;;;;;;5072122;28;20418;-85
2023/06/02 08:33:03;;;;;;;4.65;3.97;;;;;;;;;;5072035;28;20440;-84
2023/06/02 08:35:32;;;;;;;6.90;3.85;;;;;;;;;;5072053;28;20880;-84
2023/06/02 08:38:02;;;;;;;5.25;3.80;;;;;;;;;;5071939;28;20383;-85
2023/06/02 08:40:34;;;;;;;4.00;3.60;;;;;;;;;;5071878;28;20439;-84
2023/06/02 08:43:03;;;;;;;4.23;3.83;;;;;;;;;;5071932;28;20380;-84
2023/06/02 08:45:29;;;;;;;5.10;3.85;;;;;;;;;;5071562;28;20736;-85
2023/06/02 08:47:57;;;;;;;3.70;3.37;;;;;;;;;;5071786;28;20384;-84
2023/06/02 08:50:28;;;;;;;4.90;3.72;;;;;;;;;;5071620;28;20399;-84
2023/06/02 08:52:56;;;;;;;6.00;3.80;;;;;;;;;;5071848;28;20383;-84
2023/06/02 08:55:25;;;;;;;5.18;3.90;;;;;;;;;;5071623;28;20903;-85
2023/06/02 08:57:52;;;;;;;4.43;3.50;;;;;;;;;;5071589;28;20478;-85
2023/06/02 09:00:19;;;;;;;4.05;3.60;;;;;;;;;;5053149;28;20969;-84
2023/06/02 09:02:48;;;;;;;3.75;3.45;;;;;;;;;;5071525;28;20387;-85
2023/06/02 09:05:16;;;;;;;4.40;3.40;;;;;;;;;;5071398;28;20378;-85
2023/06/02 09:07:48;;;;;;;4.68;3.28;;;;;;;;;;5071300;28;20387;-85
2023/06/02 09:10:45;;;;;;;4.13;3.70;;;;;;;;;;5071423;28;20403;-85
2023/06/02 09:13:28;;;;;;;4.85;3.50;;;;;;;;;;5039251;28;20384;-85
2023/06/02 09:16:02;;;;;;;4.32;3.28;;;;;;;;;;5053360;28;20935;-84
2023/06/02 09:18:28;;;;;;;5.55;3.45;;;;;;;;;;5053425;28;20765;-85
2023/06/02 09:20:58;;;;;;;4.20;3.45;;;;;;;;;;5071193;28;20403;-85
2023/06/02 09:23:39;;;;;;;5.20;3.28;;;;;;;;;;5071284;28;20387;-85
2023/06/02 09:26:17;;;;;;;4.82;3.42;;;;;;;;;;5071217;28;20455;-85
2023/06/02 09:28:43;;;;;;;5.80;2.70;;;;;;;;;;5071180;28;20429;-84
2023/06/02 09:31:09;;;;;;;3.43;2.53;;;;;;;;;;5071151;28;20853;-85
2023/06/02 09:33:35;;;;;;;4.60;2.67;;;;;;;;;;5071173;28;20391;-85
2023/06/02 09:36:04;;;;;;;3.28;2.70;;;;;;;;;;5053602;28;20433;-85
2023/06/02 09:38:41;;;;;;;3.78;2.88;;;;;;;;;;5070493;28;20961;-85
2023/06/02 09:41:17;;;;;;;3.13;2.80;;;;;;;;;;5071257;28;20407;-85
2023/06/02 09:43:43;;;;;;;4.22;3.03;;;;;;;;;;5058239;28;20510;-84
2023/06/02 09:46:09;;;;;;;3.95;2.95;;;;;;;;;;5071179;28;20380;-84
2023/06/02 09:48:35;;;;;;;5.25;3.30;;;;;;;;;;5071096;28;20388;-85
2023/06/02 09:51:21;;;;;;;3.22;2.83;;;;;;;;;;5071252;28;20429;-85
2023/06/02 09:53:47;;;;;;;5.55;3.30;;;;;;;;;;5073860;28;20394;-85
2023/06/02 09:56:13;;;;;;;4.05;3.10;;;;;;;;;;5073186;28;20796;-85
2023/06/02 09:58:39;;;;;;;6.13;3.10;;;;;;;;;;5052875;28;20384;-85
2023/06/02 10:01:05;;;;;;;3.75;2.67;;;;;;;;;;5050810;28;20408;-84
2023/06/02 10:03:31;;;;;;;3.97;2.92;;;;;;;;;;5071184;28;20380;-85
2023/06/02 10:06:12;;;;;;;3.55;2.60;;;;;;;;;;5053025;28;20733;-85
2023/06/02 10:08:50;;;;;;;4.90;2.90;;;;;;;;;;5070830;28;22093;-85
2023/06/02 10:11:22;;;;;;;3.78;2.78;;;;;;;;;;5070760;28;20474;-85
2023/06/02 10:13:54;;;;;;;3.70;2.78;;;;;;;;;;5071022;28;20883;-86
2023/06/02 10:16:23;;;;;;;3.88;2.47;;;;;;;;;;5070828;28;20425;-84
2023/06/02 10:21:35;;;;;;;2.63;2.40;;;;;;;;;;5031309;28;20510;-80
2023/06/02 10:24:14;;;;;;;4.00;2.40;;;;;;;;;;5034679;28;20517;-80
2023/06/02 10:26:50;;;;;;;3.10;2.40;;;;;;;;;;5034363;28;20378;-81
2023/06/02 10:29:16;;;;;;;4.18;2.22;;;;;;;;;;5027950;28;20446;-80
2023/06/02 10:31:44;;;;;;;2.55;2.30;;;;;;;;;;5034425;28;20379;-80
2023/06/02 10:34:30;;;;;;;3.72;2.40;;;;;;;;;;5034511;28;20386;-81
2023/06/02 10:37:01;;;;;;;4.43;2.30;;;;;;;;;;5034342;28;20380;-80
2023/06/02 10:39:40;;;;;;;4.60;2.33;;;;;;;;;;5037430;28;20407;-81
2023/06/02 10:42:10;;;;;;;4.70;2.20;;;;;;;;;;5034620;28;20728;-80
2023/06/02 10:44:36;;;;;;;2.30;2.10;;;;;;;;;;5033935;28;20395;-81
2023/06/02 10:47:17;;;;;;;2.80;2.20;;;;;;;;;;5034267;28;20484;-81
2023/06/02 10:49:53;;;;;;;2.30;2.00;;;;;;;;;;5034158;28;20387;-80
2023/06/02 10:52:19;;;;;;;2.97;2.30;;;;;;;;;;5021095;28;20386;-80
2023/06/02 10:54:45;;;;;;;3.90;2.37;;;;;;;;;;5034384;28;20804;-81
2023/06/02 10:57:12;;;;;;;2.20;2.00;;;;;;;;;;5034073;28;20379;-80
2023/06/02 10:59:38;;;;;;;4.45;2.40;;;;;;;;;;5033948;28;20403;-81
2023/06/02 11:02:05;;;;;;;3.22;2.42;;;;;;;;;;5033940;28;20386;-81
2023/06/02 11:04:38;;;;;;;3.05;2.30;;;;;;;;;;5034029;28;20375;-81
2023/06/02 11:07:21;;;;;;;4.03;2.38;;;;;;;;;;5033378;28;20382;-80
2023/06/02 11:09:55;;;;;;;3.70;2.47;;;;;;;;;;5033883;28;20466;-80
2023/06/02 11:12:22;;;;;;;2.30;2.10;;;;;;;;;;5033826;28;20409;-81
2023/06/02 11:15:00;;;;;;;4.27;2.30;;;;;;;;;;5033675;28;20375;-80
2023/06/02 11:17:30;;;;;;;2.80;2.30;;;;;;;;;;5033828;28;20379;-81
2023/06/02 11:19:57;;;;;;;4.70;2.50;;;;;;;;;;5026648;28;20523;-80
2023/06/02 11:22:23;;;;;;;2.67;2.13;;;;;;;;;;5014032;28;20815;-80
2023/06/02 11:24:52;;;;;;;4.53;2.20;;;;;;;;;;5013837;28;20400;-80
2023/06/02 11:27:18;;;;;;;4.72;2.42;;;;;;;;;;5013704;28;20423;-80
2023/06/02 11:29:44;;;;;;;3.20;2.30;;;;;;;;;;5013390;28;20385;-80
2023/06/02 11:32:16;;;;;;;2.45;2.25;;;;;;;;;;5013389;28;20750;-80
2023/06/02 11:34:42;;;;;;;2.90;2.30;;;;;;;;;;5011831;28;20396;-81
2023/06/02 11:37:16;;;;;;;3.35;2.08;;;;;;;;;;5013659;28;20460;-80
2023/06/02 11:39:49;;;;;;;2.40;2.20;;;;;;;;;;5013392;28;20469;-80
2023/06/02 11:42:15;;;;;;;2.60;2.40;;;;;;;;;;5013607;28;20385;-80
2023/06/02 11:44:48;;;;;;;3.75;2.40;;;;;;;;;;5013414;28;20395;-80
2023/06/02 11:47:17;;;;;;;4.90;2.17;;;;;;;;;;5013530;28;20377;-80
2023/06/02 11:49:43;;;;;;;4.47;2.50;;;;;;;;;;5013173;28;20389;-80
2023/06/02 11:52:10;;;;;;;2.97;2.67;;;;;;;;;;5013362;28;20479;-79
2023/06/02 11:55:10;;;;;;;2.63;2.30;;;;;;;;;;5013285;28;20399;-80
2023/06/02 11:57:36;;;;;;;3.08;2.50;;;;;;;;;;4981091;28;20393;-79
2023/06/02 12:00:12;;;;;;;3.00;2.40;;;;;;;;;;5012474;28;20436;-79
2023/06/02 12:02:43;;;;;;;3.28;2.50;;;;;;;;;;5013080;28;20381;-79
2023/06/02 12:05:10;;;;;;;2.70;2.20;;;;;;;;;;5000097;28;20381;-79
2023/06/02 12:07:36;;;;;;;3.00;2.40;;;;;;;;;;5012720;28;20393;-79
2023/06/02 12:10:03;;;;;;;2.53;2.33;;;;;;;;;;5012801;28;20392;-79
2023/06/02 12:12:30;;;;;;;4.05;2.47;;;;;;;;;;5012987;28;20389;-79
2023/06/02 12:14:56;;;;;;;2.40;2.10;;;;;;;;;;5013142;28;20901;-79
2023/06/02 12:17:22;;;;;;;3.70;2.35;;;;;;;;;;5012765;28;20420;-79
2023/06/02 12:19:58;;;;;;;2.50;2.30;;;;;;;;;;5012507;28;20424;-79
2023/06/02 12:22:24;;;;;;;2.53;2.30;;;;;;;;;;5012662;28;20377;-79
2023/06/02 12:24:50;;;;;;;2.55;2.35;;;;;;;;;;5012758;28;20385;-80
2023/06/02 12:27:23;;;;;;;2.80;2.33;;;;;;;;;;5012555;28;20801;-79
2023/06/02 12:29:49;;;;;;;3.67;2.25;;;;;;;;;;5012509;28;20373;-79
2023/06/02 12:32:25;;;;;;;2.85;2.50;;;;;;;;;;5012532;28;20385;-79
2023/06/02 12:34:51;;;;;;;2.97;2.33;;;;;;;;;;5012426;28;20381;-79
2023/06/02 12:37:18;;;;;;;3.30;2.65;;;;;;;;;;5012065;28;20484;-79
2023/06/02 12:39:43;;;;;;;4.00;2.40;;;;;;;;;;5012129;28;20463;-79
2023/06/02 12:42:13;;;;;;;2.80;2.25;;;;;;;;;;5012055;28;20378;-79
2023/06/02 12:44:39;;;;;;;2.58;2.38;;;;;;;;;;5012238;28;20372;-79
2023/06/02 12:47:06;;;;;;;3.72;2.42;;;;;;;;;;5012593;28;20447;-79
2023/06/02 12:49:32;;;;;;;4.63;2.50;;;;;;;;;;5012023;28;20393;-79
2023/06/02 12:51:58;;;;;;;2.67;2.40;;;;;;;;;;5012152;28;20483;-79
2023/06/02 12:54:24;;;;;;;3.55;2.50;;;;;;;;;;5012208;28;20417;-79
2023/06/02 12:56:50;;;;;;;3.70;2.60;;;;;;;;;;5011898;28;20883;-79
2023/06/02 12:59:17;;;;;;;3.22;2.35;;;;;;;;;;5011992;28;20432;-79
2023/06/02 13:01:43;;;;;;;4.30;2.53;;;;;;;;;;5011916;28;20435;-79
2023/06/02 13:04:09;;;;;;;5.38;2.75;;;;;;;;;;5012282;28;20379;-79
2023/06/02 13:06:36;;;;;;;2.88;2.40;;;;;;;;;;5011810;28;20964;-80
2023/06/02 13:09:03;;;;;;;3.87;2.40;;;;;;;;;;5011913;28;20404;-79
2023/06/02 13:11:29;;;;;;;3.28;2.30;;;;;;;;;;5011511;28;20389;-79
2023/06/02 13:13:58;;;;;;;3.20;2.30;;;;;;;;;;5011783;28;20376;-80
2023/06/02 13:16:25;;;;;;;2.30;2.10;;;;;;;;;;5003765;28;20380;-79
2023/06/02 13:18:52;;;;;;;3.20;2.40;;;;;;;;;;5011702;28;20393;-79
2023/06/02 13:21:18;;;;;;;4.80;2.60;;;;;;;;;;5011482;28;20420;-79
2023/06/02 13:23:57;;;;;;;4.15;2.50;;;;;;;;;;5011665;28;20381;-79
2023/06/02 13:26:23;;;;;;;5.20;2.73;;;;;;;;;;5011732;28;20412;-79
2023/06/02 13:28:49;;;;;;;3.50;2.53;;;;;;;;;;5011637;28;20388;-79
2023/06/02 13:31:15;;;;;;;2.87;2.53;;;;;;;;;;5011019;28;20381;-79
2023/06/02 13:33:41;;;;;;;2.70;2.30;;;;;;;;;;5011627;28;20805;-79
2023/06/02 13:36:07;;;;;;;2.83;2.60;;;;;;;;;;5011507;28;20389;-79
2023/06/02 13:38:33;;;;;;;4.25;2.70;;;;;;;;;;4993887;28;20464;-79
2023/06/02 13:40:59;;;;;;;3.40;2.38;;;;;;;;;;5011413;28;20981;-79
2023/06/02 13:43:25;;;;;;;4.90;2.70;;;;;;;;;;5011503;28;20460;-79
2023/06/02 13:45:51;;;;;;;2.97;2.67;;;;;;;;;;5011481;28;20797;-79
2023/06/02 13:48:17;;;;;;;3.28;2.72;;;;;;;;;;5011328;28;20476;-80
2023/06/02 13:50:43;;;;;;;3.97;2.65;;;;;;;;;;5011425;28;20389;-79
2023/06/02 13:53:09;;;;;;;2.80;2.53;;;;;;;;;;5014086;28;20795;-80
2023/06/02 13:55:35;;;;;;;4.40;2.47;;;;;;;;;;5015564;28;20475;-79
2023/06/02 13:58:01;;;;;;;7.10;3.30;;;;;;;;;;5014627;28;21121;-79
2023/06/02 14:00:27;;;;;;;2.60;2.40;;;;;;;;;;5014980;28;20455;-79
2023/06/02 14:02:53;;;;;;;2.67;2.42;;;;;;;;;;5015425;28;20385;-79
2023/06/02 14:05:19;;;;;;;4.60;2.40;;;;;;;;;;5015226;28;20888;-79
2023/06/02 14:07:45;;;;;;;5.33;2.67;;;;;;;;;;5015275;28;20430;-79
2023/06/02 14:10:11;;;;;;;3.70;2.53;;;;;;;;;;5015021;28;20391;-79
2023/06/02 14:12:37;;;;;;;3.85;2.40;;;;;;;;;;5015178;28;20389;-79
2023/06/02 14:15:04;;;;;;;3.10;2.40;;;;;;;;;;5014998;28;20403;-79
2023/06/02 14:17:30;;;;;;;2.77;2.43;;;;;;;;;;5015061;28;20955;-79
2023/06/02 14:19:56;;;;;;;2.67;2.47;;;;;;;;;;5014703;28;20507;-79
2023/06/02 14:22:23;;;;;;;2.88;2.40;;;;;;;;;;5014948;28;20424;-79
2023/06/02 14:24:49;;;;;;;4.65;2.42;;;;;;;;;;5014922;28;20389;-79
2023/06/02 14:27:15;;;;;;;3.78;2.60;;;;;;;;;;5014732;28;20384;-79
2023/06/02 14:29:41;;;;;;;4.60;2.88;;;;;;;;;;5014319;28;20405;-79
2023/06/02 14:32:07;;;;;;;3.60;2.40;;;;;;;;;;5014776;28;20446;-79
2023/06/02 14:34:33;;;;;;;2.83;2.58;;;;;;;;;;5014663;28;20396;-79
2023/06/02 14:36:59;;;;;;;3.72;2.63;;;;;;;;;;5014709;28;20384;-79
2023/06/02 14:39:25;;;;;;;2.78;2.45;;;;;;;;;;5014392;28;20412;-79
2023/06/02 14:41:51;;;;;;;3.35;2.50;;;;;;;;;;5014698;28;20892;-79
2023/06/02 14:44:17;;;;;;;2.70;2.40;;;;;;;;;;5014689;28;20391;-80
2023/06/02 14:46:43;;;;;;;2.97;2.42;;;;;;;;;;5014490;28;20734;-79
2023/06/02 14:49:11;;;;;;;2.90;2.63;;;;;;;;;;5014452;28;20769;-79